createdAt,value
2023-12-15T00:00:02.952Z,59.14
2023-12-15T00:01:02.993Z,58.17
2023-12-15T00:02:03.050Z,58.33
2023-12-15T00:03:03.088Z,59.14
2023-12-15T00:04:02.984Z,58.33
2023-12-15T00:05:02.983Z,58.49
2023-12-15T00:06:02.936Z,58.97
2023-12-15T00:07:02.917Z,60.10
2023-12-15T00:08:02.997Z,58.81
2023-12-15T00:09:02.938Z,59.14
2023-12-15T00:10:02.913Z,58.49
2023-12-15T00:11:03.765Z,58.33
2023-12-15T00:12:02.874Z,58.49
2023-12-15T00:13:02.854Z,57.85
2023-12-15T00:14:02.912Z,58.49
2023-12-15T00:15:02.878Z,58.01
2023-12-15T00:16:02.842Z,58.01
2023-12-15T00:17:03.816Z,58.49
2023-12-15T00:18:03.092Z,58.33
2023-12-15T00:19:02.888Z,58.81
2023-12-15T00:20:03.018Z,58.01
2023-12-15T00:21:02.808Z,60.59
2023-12-15T00:22:02.829Z,58.01
2023-12-15T00:23:02.843Z,58.33
2023-12-15T00:24:02.821Z,58.65
2023-12-15T00:25:02.790Z,59.14
2023-12-15T00:26:02.801Z,59.30
2023-12-15T00:27:02.759Z,59.14
2023-12-15T00:28:02.820Z,59.46
2023-12-15T00:29:02.782Z,59.14
2023-12-15T00:30:02.751Z,59.78
2023-12-15T00:31:02.802Z,58.97
2023-12-15T00:32:02.759Z,58.33
2023-12-15T00:33:02.794Z,58.49
2023-12-15T00:34:02.988Z,58.97
2023-12-15T00:35:02.733Z,58.65
2023-12-15T00:36:02.718Z,58.97
2023-12-15T00:37:02.691Z,58.81
2023-12-15T00:38:02.799Z,58.17
2023-12-15T00:39:02.724Z,58.81
2023-12-15T00:40:02.717Z,58.65
2023-12-15T00:41:02.715Z,58.97
2023-12-15T00:42:02.674Z,58.97
2023-12-15T00:43:02.661Z,58.17
2023-12-15T00:44:02.758Z,58.49
2023-12-15T00:45:02.649Z,58.17
2023-12-15T00:46:02.653Z,58.97
2023-12-15T00:47:02.830Z,58.33
2023-12-15T00:48:02.671Z,58.17
2023-12-15T00:49:02.868Z,58.65
2023-12-15T00:50:02.940Z,58.81
2023-12-15T00:51:02.638Z,58.81
2023-12-15T00:52:02.626Z,58.49
2023-12-15T00:53:02.678Z,61.07
2023-12-15T00:54:02.622Z,58.33
2023-12-15T00:55:02.733Z,58.65
2023-12-15T00:56:02.649Z,58.81
2023-12-15T00:57:02.591Z,58.17
2023-12-15T00:58:03.070Z,58.49
2023-12-15T00:59:02.644Z,58.17
2023-12-15T01:00:02.608Z,58.49
2023-12-15T01:01:02.584Z,58.33
2023-12-15T01:02:02.624Z,58.33
2023-12-15T01:03:02.581Z,58.49
2023-12-15T01:04:02.525Z,57.85
2023-12-15T01:05:02.719Z,58.49
2023-12-15T01:06:02.751Z,58.97
2023-12-15T01:07:02.528Z,58.81
2023-12-15T01:08:02.612Z,58.81
2023-12-15T01:09:02.504Z,59.14
2023-12-15T01:10:02.502Z,58.49
2023-12-15T01:11:02.532Z,58.49
2023-12-15T01:12:02.476Z,59.62
2023-12-15T01:13:02.524Z,58.49
2023-12-15T01:14:03.699Z,58.17
2023-12-15T01:15:02.704Z,58.81
2023-12-15T01:16:02.481Z,58.33
2023-12-15T01:17:02.506Z,58.81
2023-12-15T01:18:02.612Z,58.81
2023-12-15T01:19:02.516Z,58.81
2023-12-15T01:20:02.611Z,60.10
2023-12-15T01:21:02.475Z,58.49
2023-12-15T01:22:02.418Z,58.97
2023-12-15T01:23:02.466Z,59.94
2023-12-15T01:24:02.411Z,58.65
2023-12-15T01:25:03.418Z,58.65
2023-12-15T01:26:02.425Z,58.81
2023-12-15T01:27:02.418Z,58.97
2023-12-15T01:28:02.460Z,59.30
2023-12-15T01:29:02.431Z,61.39
2023-12-15T01:30:02.403Z,61.07
2023-12-15T01:31:03.138Z,58.17
2023-12-15T01:32:02.492Z,59.30
2023-12-15T01:33:02.416Z,58.97
2023-12-15T01:34:02.453Z,58.17
2023-12-15T01:35:02.433Z,58.81
2023-12-15T01:36:02.324Z,58.65
2023-12-15T01:37:02.326Z,58.97
2023-12-15T01:38:02.602Z,58.17
2023-12-15T01:39:02.345Z,58.17
2023-12-15T01:40:02.344Z,58.65
2023-12-15T01:41:02.330Z,58.33
2023-12-15T01:42:02.327Z,58.97
2023-12-15T01:43:02.306Z,58.81
2023-12-15T01:44:02.438Z,58.97
2023-12-15T01:45:02.278Z,58.65
2023-12-15T01:46:08.770Z,58.97
2023-12-15T01:47:03.342Z,58.97
2023-12-15T01:48:02.450Z,59.14
2023-12-15T01:49:02.356Z,58.81
2023-12-15T01:50:02.344Z,58.01
2023-12-15T01:51:02.239Z,59.14
2023-12-15T01:52:02.254Z,58.81
2023-12-15T01:53:02.297Z,59.46
2023-12-15T01:54:02.238Z,59.46
2023-12-15T01:55:02.216Z,58.65
2023-12-15T01:56:02.256Z,58.81
2023-12-15T01:57:02.203Z,58.49
2023-12-15T01:58:02.274Z,58.81
2023-12-15T01:59:02.284Z,58.97
2023-12-15T02:00:02.252Z,59.30
2023-12-15T02:01:02.257Z,58.65
2023-12-15T02:02:02.194Z,58.33
2023-12-15T02:03:02.164Z,58.49
2023-12-15T02:04:02.237Z,58.65
2023-12-15T02:05:02.238Z,58.01
2023-12-15T02:06:02.235Z,58.81
2023-12-15T02:07:02.148Z,58.33
2023-12-15T02:08:02.163Z,58.65
2023-12-15T02:09:02.149Z,58.33
2023-12-15T02:10:02.130Z,58.65
2023-12-15T02:11:02.153Z,58.17
2023-12-15T02:12:02.114Z,58.49
2023-12-15T02:13:02.128Z,58.17
2023-12-15T02:14:02.116Z,58.17
2023-12-15T02:15:02.114Z,58.49
2023-12-15T02:16:02.086Z,58.49
2023-12-15T02:17:02.100Z,60.91
2023-12-15T02:18:02.253Z,58.01
2023-12-15T02:19:02.158Z,58.97
2023-12-15T02:20:02.268Z,58.33
2023-12-15T02:21:03.072Z,58.01
2023-12-15T02:22:02.048Z,58.65
2023-12-15T02:23:02.087Z,58.17
2023-12-15T02:24:02.039Z,58.81
2023-12-15T02:25:02.073Z,58.33
2023-12-15T02:26:02.055Z,58.49
2023-12-15T02:27:03.711Z,58.65
2023-12-15T02:28:02.021Z,58.65
2023-12-15T02:29:02.014Z,57.85
2023-12-15T02:30:02.013Z,58.49
2023-12-15T02:31:02.020Z,58.01
2023-12-15T02:32:02.105Z,58.65
2023-12-15T02:33:02.137Z,58.01
2023-12-15T02:34:02.033Z,58.01
2023-12-15T02:35:02.038Z,58.65
2023-12-15T02:36:01.985Z,57.52
2023-12-15T02:37:01.960Z,58.33
2023-12-15T02:38:02.015Z,58.01
2023-12-15T02:39:01.954Z,58.17
2023-12-15T02:40:01.944Z,58.81
2023-12-15T02:41:01.966Z,59.30
2023-12-15T02:42:01.941Z,61.39
2023-12-15T02:43:01.937Z,58.49
2023-12-15T02:44:01.920Z,57.69
2023-12-15T02:45:01.926Z,58.81
2023-12-15T02:46:01.905Z,61.07
2023-12-15T02:47:02.019Z,58.97
2023-12-15T02:48:02.134Z,58.33
2023-12-15T02:49:01.998Z,58.81
2023-12-15T02:50:01.924Z,58.33
2023-12-15T02:51:01.894Z,58.49
2023-12-15T02:52:01.876Z,58.33
2023-12-15T02:53:02.058Z,58.17
2023-12-15T02:54:01.894Z,59.30
2023-12-15T02:55:01.853Z,59.78
2023-12-15T02:56:02.781Z,58.81
2023-12-15T02:57:01.849Z,58.81
2023-12-15T02:58:01.891Z,58.97
2023-12-15T02:59:01.847Z,58.33
2023-12-15T03:00:01.833Z,58.65
2023-12-15T03:01:01.886Z,58.33
2023-12-15T03:02:01.968Z,58.01
2023-12-15T03:03:01.839Z,58.49
2023-12-15T03:04:01.790Z,58.49
2023-12-15T03:05:01.811Z,58.65
2023-12-15T03:06:02.864Z,58.01
2023-12-15T03:07:02.731Z,58.33
2023-12-15T03:08:01.835Z,58.01
2023-12-15T03:09:01.779Z,59.30
2023-12-15T03:10:01.763Z,58.01
2023-12-15T03:11:01.782Z,58.65
2023-12-15T03:12:01.777Z,58.81
2023-12-15T03:13:01.743Z,59.30
2023-12-15T03:14:01.764Z,58.17
2023-12-15T03:15:01.735Z,58.49
2023-12-15T03:16:01.723Z,58.49
2023-12-15T03:17:01.930Z,58.17
2023-12-15T03:18:35.205Z,58.17
2023-12-15T03:19:01.741Z,58.65
2023-12-15T03:20:35.185Z,58.81
2023-12-15T03:21:01.694Z,66.06
2023-12-15T03:22:01.685Z,58.97
2023-12-15T03:23:01.737Z,58.17
2023-12-15T03:24:01.691Z,58.17
2023-12-15T03:25:01.666Z,58.01
2023-12-15T03:26:01.715Z,57.85
2023-12-15T03:27:35.183Z,58.97
2023-12-15T03:28:35.114Z,58.49
2023-12-15T03:29:01.694Z,58.65
2023-12-15T03:30:01.636Z,59.94
2023-12-15T03:31:01.651Z,58.17
2023-12-15T03:32:01.675Z,58.01
2023-12-15T03:33:01.702Z,58.01
2023-12-15T03:34:01.685Z,58.97
2023-12-15T03:35:02.318Z,58.01
2023-12-15T03:36:01.614Z,58.17
2023-12-15T03:37:01.617Z,58.33
2023-12-15T03:38:01.619Z,58.65
2023-12-15T03:39:01.611Z,58.49
2023-12-15T03:40:01.591Z,58.17
2023-12-15T03:41:01.586Z,60.75
2023-12-15T03:42:01.557Z,59.14
2023-12-15T03:43:01.564Z,58.49
2023-12-15T03:44:01.677Z,58.33
2023-12-15T03:45:01.573Z,58.65
2023-12-15T03:46:01.534Z,58.01
2023-12-15T03:47:01.569Z,58.01
2023-12-15T03:48:01.640Z,57.85
2023-12-15T03:49:01.557Z,65.74
2023-12-15T03:50:01.607Z,60.10
2023-12-15T03:51:01.687Z,58.33
2023-12-15T03:52:01.536Z,58.65
2023-12-15T03:53:01.590Z,58.17
2023-12-15T03:54:01.517Z,59.14
2023-12-15T03:55:01.502Z,58.01
2023-12-15T03:56:01.535Z,58.33
2023-12-15T03:57:01.487Z,58.49
2023-12-15T03:58:01.473Z,58.01
2023-12-15T03:59:01.484Z,58.33
2023-12-15T04:00:01.503Z,59.14
2023-12-15T04:01:01.514Z,58.65
2023-12-15T04:02:01.491Z,58.65
2023-12-15T04:03:01.462Z,58.81
2023-12-15T04:04:01.431Z,58.01
2023-12-15T04:05:01.503Z,58.33
2023-12-15T04:06:01.487Z,64.13
2023-12-15T04:07:01.413Z,63.16
2023-12-15T04:08:01.474Z,60.42
2023-12-15T04:09:01.410Z,58.65
2023-12-15T04:10:01.416Z,58.97
2023-12-15T04:11:01.478Z,59.30
2023-12-15T04:12:01.392Z,58.81
2023-12-15T04:13:01.373Z,60.26
2023-12-15T04:14:01.415Z,60.59
2023-12-15T04:15:01.376Z,62.68
2023-12-15T04:16:01.390Z,58.01
2023-12-15T04:17:01.389Z,60.26
2023-12-15T04:18:01.693Z,58.01
2023-12-15T04:19:01.457Z,58.17
2023-12-15T04:20:01.594Z,58.49
2023-12-15T04:21:01.341Z,58.97
2023-12-15T04:22:01.325Z,59.14
2023-12-15T04:23:01.346Z,61.07
2023-12-15T04:24:01.326Z,58.17
2023-12-15T04:25:01.332Z,59.30
2023-12-15T04:26:01.447Z,58.33
2023-12-15T04:27:01.346Z,58.97
2023-12-15T04:28:01.286Z,59.14
2023-12-15T04:29:01.324Z,59.78
2023-12-15T04:30:01.279Z,62.20
2023-12-15T04:31:01.280Z,63.49
2023-12-15T04:32:01.306Z,63.65
2023-12-15T04:33:01.328Z,63.49
2023-12-15T04:34:01.306Z,65.26
2023-12-15T04:35:01.336Z,67.68
2023-12-15T04:36:01.250Z,62.52
2023-12-15T04:37:01.243Z,62.20
2023-12-15T04:38:01.270Z,60.10
2023-12-15T04:39:01.262Z,59.46
2023-12-15T04:40:01.216Z,64.94
2023-12-15T04:41:01.236Z,65.42
2023-12-15T04:42:01.314Z,63.97
2023-12-15T04:43:01.207Z,65.58
2023-12-15T04:44:01.237Z,68.80
2023-12-15T04:45:01.188Z,58.97
2023-12-15T04:46:01.181Z,58.97
2023-12-15T04:47:01.197Z,60.42
2023-12-15T04:48:01.405Z,60.10
2023-12-15T04:49:01.302Z,66.55
2023-12-15T04:50:01.230Z,64.61
2023-12-15T04:51:01.153Z,62.04
2023-12-15T04:52:01.200Z,59.94
2023-12-15T04:53:01.266Z,60.42
2023-12-15T04:54:01.157Z,60.26
2023-12-15T04:55:01.140Z,65.74
2023-12-15T04:56:01.155Z,61.71
2023-12-15T04:57:01.153Z,68.48
2023-12-15T04:58:01.117Z,60.91
2023-12-15T04:59:01.126Z,61.55
2023-12-15T05:00:01.161Z,63.16
2023-12-15T05:01:01.095Z,60.26
2023-12-15T05:02:01.116Z,60.26
2023-12-15T05:03:01.105Z,62.20
2023-12-15T05:04:02.069Z,64.13
2023-12-15T05:05:01.107Z,62.84
2023-12-15T05:06:01.115Z,59.78
2023-12-15T05:07:01.042Z,64.78
2023-12-15T05:08:01.088Z,59.94
2023-12-15T05:09:01.058Z,64.29
2023-12-15T05:10:01.091Z,63.33
2023-12-15T05:11:01.052Z,64.13
2023-12-15T05:12:01.019Z,60.75
2023-12-15T05:13:01.033Z,62.04
2023-12-15T05:14:01.373Z,58.81
2023-12-15T05:15:01.000Z,70.25
2023-12-15T05:16:00.985Z,62.84
2023-12-15T05:17:02.868Z,66.71
2023-12-15T05:18:01.226Z,68.80
2023-12-15T05:19:01.274Z,66.23
2023-12-15T05:20:01.016Z,69.13
2023-12-15T05:21:01.769Z,62.04
2023-12-15T05:22:01.017Z,62.20
2023-12-15T05:23:01.004Z,64.45
2023-12-15T05:24:00.987Z,67.84
2023-12-15T05:25:00.934Z,65.90
2023-12-15T05:26:00.996Z,60.75
2023-12-15T05:27:00.960Z,62.84
2023-12-15T05:28:00.922Z,61.55
2023-12-15T05:29:00.971Z,61.23
2023-12-15T05:30:00.904Z,64.61
2023-12-15T05:31:00.945Z,66.06
2023-12-15T05:32:00.937Z,68.00
2023-12-15T05:33:02.925Z,63.33
2023-12-15T05:34:00.960Z,60.59
2023-12-15T05:35:04.223Z,64.13
2023-12-15T05:36:01.880Z,60.10
2023-12-15T05:37:00.864Z,66.87
2023-12-15T05:38:00.886Z,68.64
2023-12-15T05:39:00.869Z,66.23
2023-12-15T05:40:00.855Z,62.20
2023-12-15T05:41:00.891Z,69.13
2023-12-15T05:42:00.932Z,66.71
2023-12-15T05:43:00.882Z,69.77
2023-12-15T05:44:00.849Z,69.93
2023-12-15T05:45:00.840Z,61.87
2023-12-15T05:46:00.816Z,69.61
2023-12-15T05:47:00.961Z,64.78
2023-12-15T05:48:00.918Z,72.67
2023-12-15T05:49:00.981Z,64.45
2023-12-15T05:50:01.028Z,66.55
2023-12-15T05:51:00.860Z,65.10
2023-12-15T05:52:00.845Z,68.64
2023-12-15T05:53:00.852Z,69.13
2023-12-15T05:54:00.820Z,65.10
2023-12-15T05:55:00.747Z,60.10
2023-12-15T05:56:00.800Z,64.13
2023-12-15T05:57:00.760Z,66.06
2023-12-15T05:58:00.759Z,65.42
2023-12-15T05:59:00.787Z,65.26
2023-12-15T06:00:00.781Z,63.16
2023-12-15T06:01:00.770Z,62.20
2023-12-15T06:02:00.826Z,64.78
2023-12-15T06:03:00.830Z,65.90
2023-12-15T06:04:00.711Z,66.39
2023-12-15T06:05:01.518Z,62.84
2023-12-15T06:06:00.731Z,63.33
2023-12-15T06:07:00.682Z,64.29
2023-12-15T06:08:00.791Z,64.29
2023-12-15T06:09:00.703Z,69.45
2023-12-15T06:10:00.649Z,66.23
2023-12-15T06:11:00.717Z,65.10
2023-12-15T06:12:00.634Z,61.39
2023-12-15T06:13:00.643Z,61.55
2023-12-15T06:14:00.682Z,67.19
2023-12-15T06:15:00.642Z,68.48
2023-12-15T06:16:00.622Z,67.03
2023-12-15T06:17:00.618Z,69.93
2023-12-15T06:18:00.766Z,68.00
2023-12-15T06:19:00.714Z,68.32
2023-12-15T06:20:00.702Z,66.23
2023-12-15T06:21:00.584Z,68.48
2023-12-15T06:22:00.582Z,69.13
2023-12-15T06:23:00.635Z,67.03
2023-12-15T06:24:00.600Z,69.61
2023-12-15T06:25:00.564Z,66.71
2023-12-15T06:26:00.653Z,63.81
2023-12-15T06:27:00.558Z,66.23
2023-12-15T06:28:00.558Z,67.68
2023-12-15T06:29:00.586Z,66.55
2023-12-15T06:30:00.541Z,66.87
2023-12-15T06:31:00.609Z,65.74
2023-12-15T06:32:00.585Z,70.90
2023-12-15T06:33:00.554Z,68.00
2023-12-15T06:34:00.586Z,65.74
2023-12-15T06:35:00.551Z,66.87
2023-12-15T06:36:00.557Z,68.64
2023-12-15T06:37:00.565Z,67.03
2023-12-15T06:38:00.542Z,69.45
2023-12-15T06:39:00.522Z,67.35
2023-12-15T06:40:00.545Z,66.23
2023-12-15T06:41:00.489Z,68.96
2023-12-15T06:42:00.484Z,64.45
2023-12-15T06:43:00.448Z,70.74
2023-12-15T06:44:00.492Z,65.42
2023-12-15T06:45:00.483Z,67.68
2023-12-15T06:46:01.426Z,63.65
2023-12-15T06:47:00.516Z,63.00
2023-12-15T06:48:00.739Z,68.00
2023-12-15T06:49:00.476Z,63.97
2023-12-15T06:50:00.506Z,69.61
2023-12-15T06:51:00.394Z,69.45
2023-12-15T06:52:00.572Z,68.16
2023-12-15T06:53:00.451Z,62.68
2023-12-15T06:54:00.415Z,65.58
2023-12-15T06:55:00.400Z,68.32
2023-12-15T06:56:00.433Z,62.36
2023-12-15T06:57:00.384Z,68.16
2023-12-15T06:58:00.368Z,66.87
2023-12-15T06:59:00.406Z,68.00
2023-12-15T07:00:00.356Z,71.54
2023-12-15T07:01:00.392Z,65.90
2023-12-15T07:02:00.394Z,63.65
2023-12-15T07:03:00.344Z,62.36
2023-12-15T07:04:00.410Z,63.49
2023-12-15T07:05:00.732Z,63.65
2023-12-15T07:06:00.428Z,64.29
2023-12-15T07:07:00.849Z,64.45
2023-12-15T07:08:00.387Z,64.29
2023-12-15T07:09:00.300Z,64.29
2023-12-15T07:10:00.353Z,61.71
2023-12-15T07:11:00.319Z,64.45
2023-12-15T07:12:00.300Z,66.71
2023-12-15T07:13:00.289Z,65.10
2023-12-15T07:14:00.347Z,62.20
2023-12-15T07:15:00.354Z,67.68
2023-12-15T07:16:02.335Z,65.58
2023-12-15T07:17:01.276Z,69.13
2023-12-15T07:18:00.326Z,67.03
2023-12-15T07:19:00.343Z,68.00
2023-12-15T07:20:00.405Z,69.61
2023-12-15T07:21:00.269Z,67.19
2023-12-15T07:22:00.227Z,68.96
2023-12-15T07:23:00.346Z,67.68
2023-12-15T07:24:00.213Z,68.00
2023-12-15T07:25:00.224Z,68.16
2023-12-15T07:26:00.272Z,63.65
2023-12-15T07:27:00.191Z,66.71
2023-12-15T07:28:00.186Z,65.74
2023-12-15T07:29:00.265Z,63.65
2023-12-15T07:30:00.220Z,69.93
2023-12-15T07:31:00.195Z,67.51
2023-12-15T07:32:00.197Z,66.23
2023-12-15T07:33:00.372Z,68.16
2023-12-15T07:34:00.207Z,60.42
2023-12-15T07:35:00.215Z,61.71
2023-12-15T07:36:00.202Z,61.55
2023-12-15T07:37:00.115Z,69.45
2023-12-15T07:38:00.272Z,64.78
2023-12-15T07:39:00.097Z,62.20
2023-12-15T07:40:00.528Z,65.90
2023-12-15T07:41:00.136Z,66.87
2023-12-15T07:42:00.081Z,65.26
2023-12-15T07:43:00.070Z,67.19
2023-12-15T07:44:00.130Z,61.23
2023-12-15T07:45:00.077Z,68.48
2023-12-15T07:46:00.096Z,67.84
2023-12-15T07:47:00.081Z,69.29
2023-12-15T07:48:00.250Z,69.61
2023-12-15T07:49:00.147Z,68.96
2023-12-15T07:50:00.095Z,70.09
2023-12-15T07:51:00.080Z,68.96
2023-12-15T07:52:00.021Z,67.68
2023-12-15T07:53:00.084Z,70.90
2023-12-15T07:54:01.007Z,65.74
2023-12-15T07:55:00.032Z,62.04
2023-12-15T07:56:00.069Z,67.35
2023-12-15T07:56:59.990Z,65.42
2023-12-15T07:57:59.990Z,69.45
2023-12-15T07:59:00.000Z,64.61
2023-12-15T08:00:00.062Z,64.78
2023-12-15T08:01:00.024Z,67.68
2023-12-15T08:02:00.013Z,68.16
2023-12-15T08:03:00.000Z,62.68
2023-12-15T08:03:59.944Z,63.00
2023-12-15T08:04:59.986Z,65.10
2023-12-15T08:06:00.059Z,68.00
2023-12-15T08:06:59.909Z,61.55
2023-12-15T08:07:59.918Z,67.51
2023-12-15T08:08:59.917Z,65.74
2023-12-15T08:10:00.798Z,65.10
2023-12-15T08:11:02.236Z,67.84
2023-12-15T08:12:00.971Z,70.42
2023-12-15T08:12:59.884Z,60.91
2023-12-15T08:13:59.960Z,62.04
2023-12-15T08:14:59.878Z,63.16
2023-12-15T08:15:59.864Z,66.06
2023-12-15T08:16:59.916Z,68.00
2023-12-15T08:17:59.942Z,65.42
2023-12-15T08:18:59.980Z,64.13
2023-12-15T08:19:59.871Z,69.93
2023-12-15T08:20:59.862Z,68.00
2023-12-15T08:21:59.832Z,67.68
2023-12-15T08:22:59.858Z,69.77
2023-12-15T08:23:59.851Z,67.03
2023-12-15T08:24:59.802Z,68.80
2023-12-15T08:26:33.274Z,65.90
2023-12-15T08:27:33.234Z,68.96
2023-12-15T08:27:59.836Z,68.64
2023-12-15T08:28:59.854Z,59.78
2023-12-15T08:29:59.780Z,65.74
2023-12-15T08:30:59.866Z,64.29
2023-12-15T08:31:59.832Z,64.45
2023-12-15T08:32:59.918Z,64.45
2023-12-15T08:33:59.812Z,67.68
2023-12-15T08:34:59.769Z,65.90
2023-12-15T08:35:59.733Z,63.49
2023-12-15T08:37:33.181Z,71.22
2023-12-15T08:37:59.764Z,65.58
2023-12-15T08:38:59.844Z,71.06
2023-12-15T08:39:59.739Z,63.33
2023-12-15T08:40:59.751Z,65.90
2023-12-15T08:41:59.741Z,64.29
2023-12-15T08:42:59.685Z,65.42
2023-12-15T08:44:00.750Z,66.55
2023-12-15T08:44:59.710Z,67.51
2023-12-15T08:45:59.684Z,68.16
2023-12-15T08:46:59.710Z,69.93
2023-12-15T08:47:59.903Z,68.48
2023-12-15T08:48:59.769Z,67.84
2023-12-15T08:49:59.696Z,63.16
2023-12-15T08:50:59.744Z,65.74
2023-12-15T08:51:59.635Z,67.84
2023-12-15T08:52:59.709Z,64.45
2023-12-15T08:53:59.966Z,62.36
2023-12-15T08:54:59.638Z,67.03
2023-12-15T08:55:59.654Z,66.71
2023-12-15T08:56:59.740Z,69.45
2023-12-15T08:57:59.596Z,62.04
2023-12-15T08:58:59.614Z,67.35
2023-12-15T08:59:59.597Z,70.90
2023-12-15T09:00:59.673Z,68.00
2023-12-15T09:01:59.647Z,66.39
2023-12-15T09:02:59.584Z,64.13
2023-12-15T09:03:59.630Z,69.93
2023-12-15T09:05:03.720Z,62.20
2023-12-15T09:06:23.246Z,64.45
2023-12-15T09:07:00.626Z,64.13
2023-12-15T09:07:59.729Z,69.45
2023-12-15T09:08:59.810Z,62.68
2023-12-15T09:09:59.549Z,61.23
2023-12-15T09:10:59.529Z,68.00
2023-12-15T09:11:59.489Z,68.96
2023-12-15T09:12:59.529Z,68.16
2023-12-15T09:13:59.529Z,66.87
2023-12-15T09:14:59.507Z,59.46
2023-12-15T09:15:59.571Z,71.22
2023-12-15T09:16:59.502Z,70.09
2023-12-15T09:17:59.691Z,65.10
2023-12-15T09:18:59.584Z,70.74
2023-12-15T09:19:59.506Z,68.96
2023-12-15T09:20:59.451Z,68.80
2023-12-15T09:21:59.520Z,64.61
2023-12-15T09:22:59.443Z,68.00
2023-12-15T09:23:59.423Z,66.71
2023-12-15T09:24:59.455Z,61.87
2023-12-15T09:25:59.422Z,68.64
2023-12-15T09:26:59.418Z,72.03
2023-12-15T09:27:59.459Z,66.39
2023-12-15T09:28:59.450Z,68.16
2023-12-15T09:29:59.392Z,62.84
2023-12-15T09:30:59.429Z,72.35
2023-12-15T09:31:59.411Z,70.25
2023-12-15T09:32:59.413Z,67.51
2023-12-15T09:33:59.454Z,62.68
2023-12-15T09:34:59.400Z,71.06
2023-12-15T09:35:59.359Z,71.54
2023-12-15T09:36:59.635Z,67.19
2023-12-15T09:37:59.391Z,67.03
2023-12-15T09:39:01.771Z,69.61
2023-12-15T09:39:59.375Z,68.80
2023-12-15T09:40:59.359Z,67.68
2023-12-15T09:41:59.374Z,66.39
2023-12-15T09:42:59.334Z,69.45
2023-12-15T09:43:59.314Z,70.09
2023-12-15T09:45:06.736Z,72.19
2023-12-15T09:46:01.354Z,70.74
2023-12-15T09:46:59.305Z,66.06
2023-12-15T09:47:59.343Z,69.61
2023-12-15T09:48:59.359Z,69.93
2023-12-15T09:49:59.298Z,66.39
2023-12-15T09:50:59.285Z,66.39
2023-12-15T09:51:59.305Z,71.06
2023-12-15T09:52:59.273Z,70.42
2023-12-15T09:53:59.241Z,70.09
2023-12-15T09:54:59.293Z,70.58
2023-12-15T09:55:59.298Z,70.09
2023-12-15T09:56:59.292Z,70.09
2023-12-15T09:57:59.296Z,67.03
2023-12-15T09:58:59.244Z,64.94
2023-12-15T09:59:59.201Z,68.96
2023-12-15T10:00:59.296Z,69.45
2023-12-15T10:01:59.193Z,68.32
2023-12-15T10:02:59.348Z,69.45
2023-12-15T10:03:59.238Z,63.33
2023-12-15T10:04:59.231Z,69.45
2023-12-15T10:05:59.180Z,72.03
2023-12-15T10:06:59.260Z,69.77
2023-12-15T10:07:59.509Z,68.32
2023-12-15T10:09:02.647Z,69.45
2023-12-15T10:09:59.194Z,68.48
2023-12-15T10:10:59.201Z,66.23
2023-12-15T10:11:59.138Z,68.64
2023-12-15T10:12:59.201Z,70.42
2023-12-15T10:13:59.166Z,61.39
2023-12-15T10:14:59.110Z,68.48
2023-12-15T10:15:59.182Z,68.64
2023-12-15T10:16:59.113Z,62.36
2023-12-15T10:17:59.398Z,65.90
2023-12-15T10:18:59.249Z,66.71
2023-12-15T10:19:59.148Z,66.06
2023-12-15T10:20:59.112Z,68.32
2023-12-15T10:21:59.112Z,67.68
2023-12-15T10:22:59.066Z,69.29
2023-12-15T10:23:59.100Z,69.61
2023-12-15T10:24:59.085Z,69.93
2023-12-15T10:25:59.159Z,69.77
2023-12-15T10:26:59.032Z,69.77
2023-12-15T10:28:01.479Z,71.06
2023-12-15T10:28:59.110Z,71.06
2023-12-15T10:29:59.052Z,71.22
2023-12-15T10:30:59.066Z,70.90
2023-12-15T10:31:59.036Z,62.20
2023-12-15T10:32:59.376Z,65.74
2023-12-15T10:34:01.432Z,69.93
2023-12-15T10:34:58.999Z,71.22
2023-12-15T10:35:59.002Z,72.03
2023-12-15T10:36:59.041Z,68.80
2023-12-15T10:37:58.988Z,68.00
2023-12-15T10:38:58.965Z,67.35
2023-12-15T10:40:02.627Z,67.03
2023-12-15T10:40:59.003Z,69.93
2023-12-15T10:41:58.994Z,63.97
2023-12-15T10:42:58.998Z,66.71
2023-12-15T10:43:58.959Z,64.94
2023-12-15T10:44:58.959Z,65.90
2023-12-15T10:46:00.365Z,66.55
2023-12-15T10:46:58.989Z,68.64
2023-12-15T10:47:59.212Z,68.32
2023-12-15T10:48:59.010Z,70.58
2023-12-15T10:49:59.125Z,67.51
2023-12-15T10:50:58.909Z,67.03
2023-12-15T10:52:00.258Z,66.39
2023-12-15T10:52:58.919Z,70.25
2023-12-15T10:53:58.956Z,72.67
2023-12-15T10:54:58.875Z,66.71
2023-12-15T10:55:58.915Z,64.13
2023-12-15T10:56:58.844Z,70.58
2023-12-15T10:58:01.247Z,61.55
2023-12-15T10:58:58.949Z,73.64
2023-12-15T10:59:58.824Z,69.45
2023-12-15T11:00:59.011Z,63.81
2023-12-15T11:01:59.845Z,67.35
2023-12-15T11:02:58.798Z,66.55
2023-12-15T11:04:00.322Z,65.74
2023-12-15T11:04:58.839Z,65.26
2023-12-15T11:05:58.877Z,70.25
2023-12-15T11:06:58.806Z,67.68
2023-12-15T11:07:58.788Z,63.81
2023-12-15T11:08:58.792Z,61.39
2023-12-15T11:10:01.704Z,64.13
2023-12-15T11:10:58.797Z,69.13
2023-12-15T11:11:58.779Z,65.58
2023-12-15T11:12:58.736Z,68.96
2023-12-15T11:13:58.848Z,70.74
2023-12-15T11:14:58.719Z,71.54
2023-12-15T11:15:58.780Z,61.87
2023-12-15T11:16:58.827Z,66.23
2023-12-15T11:17:59.164Z,68.32
2023-12-15T11:18:58.938Z,66.55
2023-12-15T11:19:58.830Z,70.90
2023-12-15T11:20:58.733Z,71.22
2023-12-15T11:21:58.678Z,69.29
2023-12-15T11:22:58.991Z,68.16
2023-12-15T11:23:58.843Z,68.16
2023-12-15T11:24:58.709Z,67.19
2023-12-15T11:25:58.916Z,69.13
2023-12-15T11:26:58.720Z,60.91
2023-12-15T11:27:58.713Z,68.00
2023-12-15T11:28:58.715Z,71.22
2023-12-15T11:29:58.650Z,67.19
2023-12-15T11:30:58.741Z,60.10
2023-12-15T11:31:59.366Z,68.96
2023-12-15T11:32:58.713Z,69.61
2023-12-15T11:33:58.705Z,67.35
2023-12-15T11:34:58.642Z,69.93
2023-12-15T11:35:58.600Z,64.78
2023-12-15T11:36:58.641Z,62.52
2023-12-15T11:37:58.689Z,67.19
2023-12-15T11:38:58.639Z,68.32
2023-12-15T11:39:58.667Z,65.90
2023-12-15T11:40:58.618Z,59.78
2023-12-15T11:41:58.583Z,65.90
2023-12-15T11:42:58.566Z,61.39
2023-12-15T11:44:01.860Z,69.77
2023-12-15T11:44:59.351Z,71.87
2023-12-15T11:45:58.569Z,67.84
2023-12-15T11:46:58.553Z,68.64
2023-12-15T11:47:58.651Z,70.25
2023-12-15T11:48:58.556Z,70.42
2023-12-15T11:49:58.546Z,67.51
2023-12-15T11:50:58.579Z,68.00
2023-12-15T11:51:58.536Z,65.42
2023-12-15T11:52:58.511Z,66.71
2023-12-15T11:53:58.497Z,64.29
2023-12-15T11:54:58.515Z,71.38
2023-12-15T11:55:58.522Z,64.13
2023-12-15T11:56:58.500Z,71.70
2023-12-15T11:57:58.541Z,71.70
2023-12-15T11:58:58.484Z,69.93
2023-12-15T11:59:58.600Z,67.51
2023-12-15T12:00:58.492Z,71.38
2023-12-15T12:01:58.448Z,67.03
2023-12-15T12:02:59.912Z,65.74
2023-12-15T12:03:58.483Z,67.84
2023-12-15T12:04:58.435Z,70.25
2023-12-15T12:05:58.544Z,69.29
2023-12-15T12:06:58.443Z,65.42
2023-12-15T12:07:58.423Z,69.29
2023-12-15T12:08:58.413Z,67.68
2023-12-15T12:09:58.405Z,65.42
2023-12-15T12:10:58.416Z,71.54
2023-12-15T12:11:58.445Z,70.42
2023-12-15T12:12:58.393Z,70.09
2023-12-15T12:13:58.435Z,68.16
2023-12-15T12:14:58.394Z,63.49
2023-12-15T12:15:58.380Z,69.13
2023-12-15T12:16:58.538Z,68.32
2023-12-15T12:17:58.468Z,65.42
2023-12-15T12:18:58.604Z,72.19
2023-12-15T12:20:00.443Z,65.90
2023-12-15T12:20:58.362Z,70.74
2023-12-15T12:21:58.339Z,70.74
2023-12-15T12:22:58.347Z,67.03
2023-12-15T12:23:58.407Z,71.38
2023-12-15T12:24:58.312Z,71.54
2023-12-15T12:25:58.316Z,70.25
2023-12-15T12:26:58.338Z,71.06
2023-12-15T12:27:58.340Z,64.78
2023-12-15T12:29:01.658Z,69.61
2023-12-15T12:29:58.299Z,71.70
2023-12-15T12:30:58.363Z,66.23
2023-12-15T12:31:58.290Z,66.55
2023-12-15T12:32:58.434Z,70.42
2023-12-15T12:33:58.319Z,67.51
2023-12-15T12:34:58.267Z,63.33
2023-12-15T12:35:58.274Z,71.22
2023-12-15T12:36:58.337Z,65.74
2023-12-15T12:37:58.267Z,65.74
2023-12-15T12:38:58.240Z,70.74
2023-12-15T12:39:58.322Z,72.35
2023-12-15T12:40:58.223Z,72.03
2023-12-15T12:41:58.266Z,71.70
2023-12-15T12:42:59.206Z,71.70
2023-12-15T12:43:58.289Z,67.51
2023-12-15T12:44:58.237Z,71.54
2023-12-15T12:45:58.198Z,71.38
2023-12-15T12:46:58.184Z,70.90
2023-12-15T12:47:58.305Z,63.81
2023-12-15T12:48:58.319Z,64.78
2023-12-15T12:49:58.296Z,71.06
2023-12-15T12:50:58.277Z,72.99
2023-12-15T12:51:58.825Z,71.38